Time;durP1;ratioP1;P1;durP2;ratioP2;P2;SDS_P1;SDS_P2;PMS_P1;PMS_P2;Temp;Humidity;BMP_temperature;BMP_pressure;BME280_temperature;BME280_humidity;BME280_pressure;Samples;Min_cycle;Max_cycle;Signal;HPM_P1;HPM_P2
2024/03/28 00:02:00;;;;;;;2.00;1.45;;;;;;;2.31;100.00;90546.13;4992314;28;20165;-74
2024/03/28 00:04:26;;;;;;;2.42;1.40;;;;;;;2.34;100.00;90553.28;4991305;28;20061;-74
2024/03/28 00:06:51;;;;;;;2.60;1.40;;;;;;;2.34;100.00;90554.06;4991610;28;20471;-74
2024/03/28 00:09:17;;;;;;;2.08;1.40;;;;;;;2.37;100.00;90566.41;5002065;28;20058;-74
2024/03/28 00:11:42;;;;;;;1.83;1.40;;;;;;;2.41;100.00;90564.03;4997321;28;20038;-74
2024/03/28 00:14:08;;;;;;;2.60;1.50;;;;;;;2.40;100.00;90570.25;4973621;28;20120;-74
2024/03/28 00:16:34;;;;;;;3.92;1.50;;;;;;;2.42;100.00;90573.31;4987927;28;20955;-74
2024/03/28 00:18:59;;;;;;;2.33;1.50;;;;;;;2.44;100.00;90573.81;4974020;28;20030;-74
2024/03/28 00:21:25;;;;;;;2.80;1.80;;;;;;;2.46;100.00;90579.44;4991877;28;20033;-74
2024/03/28 00:23:50;;;;;;;5.28;1.50;;;;;;;2.48;100.00;90569.59;4998042;28;20372;-74
2024/03/28 00:26:16;;;;;;;1.92;1.30;;;;;;;2.49;100.00;90568.53;4992059;28;20042;-75
2024/03/28 00:28:42;;;;;;;3.10;1.73;;;;;;;2.50;100.00;90567.50;4951992;28;20026;-74
2024/03/28 00:31:09;;;;;;;3.20;1.55;;;;;;;2.51;100.00;90571.63;4994669;28;20448;-74
2024/03/28 00:33:35;;;;;;;3.47;1.73;;;;;;;2.50;100.00;90570.09;4995507;28;20066;-75
2024/03/28 00:36:02;;;;;;;4.32;2.53;;;;;;;2.46;100.00;90559.56;4988039;28;20058;-74
2024/03/28 00:38:27;;;;;;;4.75;2.58;;;;;;;2.46;100.00;90558.78;4994910;28;20050;-74
2024/03/28 00:40:54;;;;;;;5.22;3.28;;;;;;;2.52;100.00;90559.47;4990475;28;20073;-74
2024/03/28 00:43:21;;;;;;;17.65;4.72;;;;;;;2.53;100.00;90564.34;4991206;28;20438;-74
2024/03/28 00:45:48;;;;;;;9.02;4.53;;;;;;;2.56;100.00;90565.59;4990844;28;20030;-74
2024/03/28 00:48:16;;;;;;;17.10;5.28;;;;;;;2.60;100.00;90567.31;4995382;28;20116;-74
2024/03/28 00:50:41;;;;;;;6.30;3.80;;;;;;;2.58;100.00;90556.50;4970909;28;20539;-74
2024/03/28 00:53:07;;;;;;;4.57;2.90;;;;;;;2.53;100.00;90548.84;4992139;28;20062;-74
2024/03/28 00:55:35;;;;;;;4.78;3.00;;;;;;;2.54;100.00;90544.44;4990815;28;20042;-74
2024/03/28 00:58:01;;;;;;;4.43;2.85;;;;;;;2.55;100.00;90549.34;4988608;28;20030;-74
2024/03/28 01:00:27;;;;;;;4.40;2.30;;;;;;;2.63;100.00;90553.84;4983785;28;20403;-75
2024/03/28 01:02:52;;;;;;;3.60;2.28;;;;;;;2.59;100.00;90560.66;5000559;28;20492;-74
2024/03/28 01:05:18;;;;;;;6.43;2.88;;;;;;;2.67;100.00;90559.97;4975632;28;20477;-74
2024/03/28 01:07:44;;;;;;;3.50;2.08;;;;;;;2.79;100.00;90566.50;4990514;28;20403;-74
2024/03/28 01:10:09;;;;;;;4.13;2.55;;;;;;;2.69;100.00;90568.22;4991869;28;20039;-75
2024/03/28 01:12:35;;;;;;;3.63;2.30;;;;;;;2.66;100.00;90565.44;4991369;28;20034;-74
2024/03/28 01:15:01;;;;;;;3.90;2.33;;;;;;;2.63;100.00;90566.75;4973110;28;20038;-74
2024/03/28 01:17:26;;;;;;;4.05;2.40;;;;;;;2.61;100.00;90568.88;4996241;28;20400;-74
2024/03/28 01:19:52;;;;;;;4.07;2.40;;;;;;;2.59;100.00;90565.81;4994795;28;20061;-74
2024/03/28 01:22:19;;;;;;;4.07;2.55;;;;;;;2.58;100.00;90571.25;4995385;28;20042;-74
2024/03/28 01:24:46;;;;;;;4.22;2.60;;;;;;;2.57;100.00;90570.50;5008545;28;20043;-74
2024/03/28 01:27:11;;;;;;;5.28;2.50;;;;;;;2.56;100.00;90571.53;5008380;28;20454;-74
2024/03/28 01:29:37;;;;;;;4.63;2.17;;;;;;;2.58;100.00;90582.34;5004192;28;20037;-75
2024/03/28 01:32:03;;;;;;;4.75;2.40;;;;;;;2.60;100.00;90589.81;4999378;28;20042;-75
2024/03/28 01:34:28;;;;;;;5.95;2.30;;;;;;;2.61;100.00;90591.34;5009013;28;20502;-74
2024/03/28 01:36:54;;;;;;;4.65;2.50;;;;;;;2.61;100.00;90592.13;5005991;28;20030;-74
2024/03/28 01:39:20;;;;;;;4.95;2.63;;;;;;;2.63;100.00;90604.75;5003271;28;20046;-75
2024/03/28 01:41:53;;;;;;;3.03;1.92;;;;;;;2.65;100.00;90598.25;5002334;28;20033;-74
2024/03/28 01:44:23;;;;;;;3.70;2.05;;;;;;;2.64;100.00;90611.47;5005067;28;20033;-74
2024/03/28 01:46:52;;;;;;;4.10;2.13;;;;;;;2.65;100.00;90608.56;5005752;28;20026;-74
2024/03/28 01:49:18;;;;;;;3.83;2.38;;;;;;;2.65;100.00;90603.41;5000517;28;20110;-75
2024/03/28 01:51:44;;;;;;;4.03;2.30;;;;;;;2.67;100.00;90606.47;4985513;28;20142;-74
2024/03/28 01:54:11;;;;;;;3.63;2.08;;;;;;;2.69;100.00;90619.13;5006151;28;20117;-74
2024/03/28 01:56:38;;;;;;;3.60;2.00;;;;;;;2.68;100.00;90623.53;5008022;28;20373;-75
2024/03/28 01:59:04;;;;;;;4.28;1.85;;;;;;;2.79;100.00;90613.00;5004849;28;20022;-74
2024/03/28 02:01:30;;;;;;;5.05;1.88;;;;;;;2.83;100.00;90616.56;5001103;28;20391;-74
2024/03/28 02:03:56;;;;;;;3.67;2.00;;;;;;;2.85;100.00;90628.16;5007989;28;20037;-75
2024/03/28 02:06:22;;;;;;;3.20;1.98;;;;;;;2.95;100.00;90632.41;4982196;28;20030;-74
2024/03/28 02:08:51;;;;;;;3.72;2.10;;;;;;;2.88;100.00;90624.22;5005158;28;20077;-74
2024/03/28 02:11:18;;;;;;;5.55;2.05;;;;;;;2.84;100.00;90621.47;5004682;28;20037;-75
2024/03/28 02:13:44;;;;;;;3.72;2.05;;;;;;;2.81;100.00;90618.66;5004977;28;20038;-74
2024/03/28 02:16:09;;;;;;;4.18;2.42;;;;;;;2.79;100.00;90615.59;4989457;28;20049;-74
2024/03/28 02:18:35;;;;;;;3.25;2.05;;;;;;;2.78;100.00;90616.66;5005786;28;20046;-74
2024/03/28 02:21:00;;;;;;;3.28;1.92;;;;;;;2.87;100.00;90622.69;5008102;28;20092;-74
2024/03/28 02:23:26;;;;;;;3.35;1.90;;;;;;;2.93;100.00;90624.16;5002826;28;20066;-74
2024/03/28 02:25:52;;;;;;;3.08;1.80;;;;;;;2.85;100.00;90632.56;5004157;28;20490;-75
2024/03/28 02:28:18;;;;;;;3.53;1.80;;;;;;;2.84;100.00;90633.63;4978022;28;20048;-75
2024/03/28 02:30:44;;;;;;;4.80;2.10;;;;;;;2.89;100.00;90633.53;4986023;28;20113;-75
2024/03/28 02:33:09;;;;;;;4.00;1.98;;;;;;;2.86;100.00;90641.81;5010748;28;20052;-75
2024/03/28 02:35:35;;;;;;;4.13;2.22;;;;;;;2.83;100.00;90650.16;5007317;28;20054;-75
2024/03/28 02:38:01;;;;;;;4.63;2.10;;;;;;;2.82;100.00;90638.31;5005283;28;20030;-74
2024/03/28 02:40:27;;;;;;;3.70;2.30;;;;;;;2.81;100.00;90647.84;5007582;28;20406;-74
2024/03/28 02:42:53;;;;;;;5.13;2.10;;;;;;;2.82;100.00;90651.22;4990930;28;20038;-74
2024/03/28 02:45:19;;;;;;;4.45;2.20;;;;;;;2.81;100.00;90652.25;4995961;28;20790;-75
2024/03/28 02:47:46;;;;;;;5.97;2.17;;;;;;;2.80;100.00;90653.31;5004414;28;20057;-74
2024/03/28 02:50:12;;;;;;;4.60;2.20;;;;;;;2.78;100.00;90655.41;5005238;28;20027;-74
2024/03/28 02:52:39;;;;;;;3.50;2.17;;;;;;;2.77;100.00;90661.63;4998181;28;20053;-74
2024/03/28 02:55:05;;;;;;;3.50;2.00;;;;;;;2.77;100.00;90657.25;4981987;28;20113;-74
2024/03/28 02:57:31;;;;;;;3.90;2.38;;;;;;;2.78;100.00;90660.59;4994577;28;20558;-74
2024/03/28 02:59:57;;;;;;;6.90;2.20;;;;;;;2.77;100.00;90656.44;5001845;28;20037;-74
2024/03/28 03:02:23;;;;;;;3.95;1.70;;;;;;;2.76;100.00;90650.53;4988045;28;20087;-74
2024/03/28 03:04:49;;;;;;;4.25;1.80;;;;;;;2.76;100.00;90647.19;4994999;28;20076;-75
2024/03/28 03:07:15;;;;;;;2.72;1.60;;;;;;;2.73;100.00;90633.00;5005929;28;20034;-75
2024/03/28 03:09:42;;;;;;;4.20;1.65;;;;;;;2.74;100.00;90616.44;5004613;28;20096;-75
2024/03/28 03:12:08;;;;;;;2.30;1.60;;;;;;;2.79;100.00;90610.44;4995551;28;20034;-75
2024/03/28 03:14:33;;;;;;;2.47;1.70;;;;;;;2.69;100.00;90594.03;4997645;28;20054;-74
2024/03/28 03:16:59;;;;;;;3.35;2.00;;;;;;;2.66;100.00;90584.28;5005173;28;20109;-75
2024/03/28 03:19:25;;;;;;;4.00;2.10;;;;;;;2.70;100.00;90594.81;5007583;28;20379;-75
2024/03/28 03:21:52;;;;;;;3.50;2.25;;;;;;;2.62;100.00;90608.38;4991423;28;20499;-74
2024/03/28 03:24:21;;;;;;;3.58;2.35;;;;;;;2.57;100.00;90611.81;5007905;28;20050;-74
2024/03/28 03:26:49;;;;;;;6.53;3.00;;;;;;;2.52;100.00;90619.63;5003026;28;20049;-75
2024/03/28 03:34:45;;;;;;;3.03;1.77;;;;;;;2.45;100.00;90621.81;4992568;28;20046;-74
2024/03/28 03:37:20;;;;;;;2.58;1.70;;;;;;;2.46;100.00;90624.13;5008878;28;20617;-75
2024/03/28 03:39:46;;;;;;;3.20;1.80;;;;;;;2.47;100.00;90615.31;4992201;28;20103;-74
2024/03/28 03:42:14;;;;;;;2.78;1.80;;;;;;;2.48;100.00;90618.69;5006147;28;20030;-74
2024/03/28 03:44:39;;;;;;;2.72;1.60;;;;;;;2.50;100.00;90619.16;4990250;28;20053;-74
2024/03/28 03:47:05;;;;;;;2.88;1.80;;;;;;;2.52;100.00;90616.28;5010309;28;20091;-75
2024/03/28 03:49:31;;;;;;;2.40;1.63;;;;;;;2.53;100.00;90616.00;4986188;28;20506;-75
2024/03/28 03:51:57;;;;;;;2.78;1.83;;;;;;;2.54;100.00;90611.59;4995497;28;20041;-74
2024/03/28 03:54:22;;;;;;;3.33;1.75;;;;;;;2.54;100.00;90612.38;4990088;28;20046;-75
2024/03/28 03:56:48;;;;;;;2.45;1.70;;;;;;;2.53;100.00;90608.25;4986373;28;20041;-75
2024/03/28 03:59:13;;;;;;;2.58;1.70;;;;;;;2.53;100.00;90594.59;5004145;28;20042;-74
2024/03/28 04:01:39;;;;;;;2.33;1.63;;;;;;;2.49;100.00;90582.22;5001270;28;20057;-75
2024/03/28 04:04:05;;;;;;;3.25;1.60;;;;;;;2.47;100.00;90575.81;4989789;28;20065;-75
2024/03/28 04:06:30;;;;;;;2.90;2.00;;;;;;;2.43;100.00;90585.16;4987808;28;20045;-74
2024/03/28 04:08:56;;;;;;;2.10;1.60;;;;;;;2.40;100.00;90591.66;4986655;28;20703;-75
2024/03/28 04:11:21;;;;;;;2.70;1.80;;;;;;;2.33;100.00;90595.66;5005853;28;20034;-74
2024/03/28 04:13:47;;;;;;;2.53;1.63;;;;;;;2.27;100.00;90598.34;5004591;28;20522;-74
2024/03/28 04:16:13;;;;;;;3.20;1.95;;;;;;;2.22;100.00;90613.88;5010502;28;20041;-75
2024/03/28 04:18:38;;;;;;;2.38;1.67;;;;;;;2.21;100.00;90611.59;5003463;28;20069;-74
2024/03/28 04:21:04;;;;;;;2.58;1.70;;;;;;;2.19;100.00;90617.03;5004883;28;20034;-74
2024/03/28 04:23:29;;;;;;;3.08;1.83;;;;;;;2.18;100.00;90643.88;5002809;28;20042;-74
2024/03/28 04:25:57;;;;;;;3.45;2.03;;;;;;;2.19;100.00;90658.34;5001247;28;20403;-74
2024/03/28 04:28:23;;;;;;;2.72;1.90;;;;;;;2.19;100.00;90660.91;5006701;28;20041;-74
2024/03/28 04:30:50;;;;;;;2.83;1.80;;;;;;;2.19;100.00;90665.31;5002656;28;20038;-74
2024/03/28 04:33:17;;;;;;;2.75;1.73;;;;;;;2.24;100.00;90660.84;5006908;28;20038;-75
2024/03/28 04:35:43;;;;;;;3.20;1.80;;;;;;;2.26;100.00;90653.59;4988827;28;20425;-75
2024/03/28 04:38:10;;;;;;;3.85;2.08;;;;;;;2.29;100.00;90658.19;5003974;28;20483;-75
2024/03/28 04:40:36;;;;;;;3.33;2.10;;;;;;;2.34;100.00;90664.31;5003126;28;20026;-75
2024/03/28 04:43:02;;;;;;;2.78;1.85;;;;;;;2.37;100.00;90666.38;5004698;28;20558;-75
2024/03/28 04:45:27;;;;;;;2.42;1.80;;;;;;;2.37;100.00;90661.97;5004849;28;20053;-75
2024/03/28 04:47:53;;;;;;;2.83;1.90;;;;;;;2.40;100.00;90665.78;5007335;28;20038;-75
2024/03/28 04:50:19;;;;;;;2.95;1.77;;;;;;;2.40;100.00;90663.97;5002827;28;20563;-75
2024/03/28 04:52:46;;;;;;;3.53;1.90;;;;;;;2.43;100.00;90672.97;5007997;28;20048;-75
2024/03/28 04:55:11;;;;;;;3.72;1.80;;;;;;;2.42;100.00;90671.44;5005983;28;20080;-75
2024/03/28 04:57:38;;;;;;;3.00;1.90;;;;;;;2.43;100.00;90660.06;5009290;28;20042;-75
2024/03/28 05:00:06;;;;;;;2.60;1.60;;;;;;;2.45;100.00;90660.56;5001868;28;20125;-75
2024/03/28 05:02:33;;;;;;;4.35;2.00;;;;;;;2.44;100.00;90641.72;4986001;28;20042;-75
2024/03/28 05:04:58;;;;;;;2.85;1.80;;;;;;;2.46;100.00;90644.03;5008360;28;20030;-75
2024/03/28 05:07:24;;;;;;;2.65;1.70;;;;;;;2.45;100.00;90671.63;5006677;28;20087;-75
2024/03/28 05:09:50;;;;;;;2.80;1.80;;;;;;;2.44;100.00;90700.34;5004425;28;20038;-75
2024/03/28 05:12:16;;;;;;;2.78;1.90;;;;;;;2.43;100.00;90711.72;5006516;28;20113;-75
2024/03/28 05:14:42;;;;;;;4.20;2.10;;;;;;;2.44;100.00;90708.09;5000578;28;20106;-75
2024/03/28 05:17:08;;;;;;;3.20;2.00;;;;;;;2.44;100.00;90718.44;5002284;28;20140;-75
2024/03/28 05:19:34;;;;;;;3.55;2.17;;;;;;;2.45;100.00;90714.78;5003907;28;20502;-75
2024/03/28 05:22:01;;;;;;;3.47;2.10;;;;;;;2.46;100.00;90704.19;4986219;28;20038;-75
2024/03/28 05:24:26;;;;;;;3.30;2.05;;;;;;;2.48;100.00;90701.34;5002538;28;20040;-75
2024/03/28 05:26:52;;;;;;;3.13;2.00;;;;;;;2.51;100.00;90708.50;5003018;28;20442;-75
2024/03/28 05:29:18;;;;;;;3.63;1.90;;;;;;;2.53;100.00;90714.16;5008737;28;20113;-75
2024/03/28 05:31:43;;;;;;;3.30;2.10;;;;;;;2.55;100.00;90699.16;5006006;28;20038;-75
2024/03/28 05:34:09;;;;;;;3.33;2.05;;;;;;;2.58;100.00;90685.66;4982457;28;20034;-75
2024/03/28 05:36:37;;;;;;;3.35;2.10;;;;;;;2.60;100.00;90662.91;5001531;28;20041;-75
2024/03/28 05:39:05;;;;;;;4.80;1.98;;;;;;;2.64;100.00;90663.13;5002196;28;20029;-77
2024/03/28 05:41:31;;;;;;;3.75;2.13;;;;;;;2.65;100.00;90677.56;5002726;28;20038;-76
2024/03/28 05:43:58;;;;;;;3.20;2.05;;;;;;;2.66;100.00;90676.53;5006701;28;20037;-77
2024/03/28 05:46:24;;;;;;;3.15;1.85;;;;;;;2.69;100.00;90666.38;5010125;28;20091;-77
2024/03/28 05:48:50;;;;;;;6.68;2.28;;;;;;;2.70;100.00;90667.16;4985807;28;20018;-77
2024/03/28 05:51:16;;;;;;;2.90;1.80;;;;;;;2.74;100.00;90667.38;5006473;28;20176;-77
2024/03/28 05:53:45;;;;;;;3.33;1.92;;;;;;;2.77;100.00;90651.28;4989279;28;20026;-77
2024/03/28 05:56:12;;;;;;;3.40;2.22;;;;;;;2.83;100.00;90650.16;5008607;28;20037;-78
2024/03/28 05:58:37;;;;;;;3.83;2.20;;;;;;;2.87;100.00;90643.38;4999420;28;20030;-76
2024/03/28 06:01:04;;;;;;;3.88;2.10;;;;;;;2.90;100.00;90650.56;5002067;28;20366;-76
2024/03/28 06:03:30;;;;;;;3.47;2.30;;;;;;;2.96;100.00;90654.59;5001802;28;20129;-75
2024/03/28 06:05:56;;;;;;;3.55;2.25;;;;;;;2.96;100.00;90654.59;5005320;28;20033;-76
2024/03/28 06:08:21;;;;;;;3.65;2.00;;;;;;;2.99;100.00;90661.78;5003677;28;20026;-75
2024/03/28 06:10:47;;;;;;;3.50;2.30;;;;;;;3.03;100.00;90649.81;5004627;28;20042;-76
2024/03/28 06:13:12;;;;;;;3.80;2.53;;;;;;;3.06;100.00;90645.91;5002224;28;20127;-76
2024/03/28 06:15:38;;;;;;;5.93;3.03;;;;;;;3.09;100.00;90638.34;4996766;28;20418;-76
2024/03/28 06:18:04;;;;;;;4.97;3.40;;;;;;;3.15;100.00;90640.84;4989042;28;20026;-76
2024/03/28 06:20:30;;;;;;;5.53;3.55;;;;;;;3.20;100.00;90632.97;4987057;28;20081;-76
2024/03/28 06:22:56;;;;;;;6.00;3.28;;;;;;;3.25;100.00;90635.50;4974857;28;20037;-76
2024/03/28 06:25:21;;;;;;;5.55;3.15;;;;;;;3.32;100.00;90633.28;5005373;28;20157;-76
2024/03/28 06:27:47;;;;;;;4.90;3.20;;;;;;;3.39;100.00;90620.00;5006398;28;20574;-76
2024/03/28 06:30:20;;;;;;;4.85;3.00;;;;;;;3.44;100.00;90618.06;5005253;28;20045;-77
2024/03/28 06:32:46;;;;;;;4.05;2.80;;;;;;;3.53;100.00;90620.75;5001936;28;20042;-76
2024/03/28 06:35:12;;;;;;;5.22;2.80;;;;;;;3.60;100.00;90603.00;5007626;28;20028;-77
2024/03/28 06:37:37;;;;;;;3.88;2.58;;;;;;;3.65;100.00;90602.94;5006649;28;20046;-77
2024/03/28 06:40:03;;;;;;;5.47;2.40;;;;;;;3.70;100.00;90602.06;5005436;28;20128;-76
2024/03/28 06:42:29;;;;;;;8.60;2.90;;;;;;;3.72;100.00;90592.19;5008485;28;20121;-76
2024/03/28 06:44:55;;;;;;;4.10;2.60;;;;;;;3.77;100.00;90592.06;5007578;28;20038;-75
2024/03/28 06:47:20;;;;;;;3.55;2.30;;;;;;;3.79;100.00;90595.13;5013631;28;20216;-77
2024/03/28 06:49:46;;;;;;;4.75;2.78;;;;;;;3.86;100.00;90602.50;5011907;28;20026;-76
2024/03/28 06:52:11;;;;;;;3.95;2.40;;;;;;;4.08;100.00;90589.59;5011944;28;20037;-77
2024/03/28 06:54:37;;;;;;;4.55;2.30;;;;;;;3.93;100.00;90579.56;5004585;28;20025;-77
2024/03/28 06:57:04;;;;;;;3.70;2.35;;;;;;;3.87;100.00;90581.53;5002334;28;20108;-76
2024/03/28 06:59:30;;;;;;;4.80;2.38;;;;;;;3.88;100.00;90590.81;5006203;28;20030;-77
2024/03/28 07:01:56;;;;;;;6.20;3.42;;;;;;;3.85;100.00;90586.22;5013574;28;20044;-75
2024/03/28 07:04:21;;;;;;;10.63;4.63;;;;;;;3.84;100.00;90592.44;5011217;28;20029;-76
2024/03/28 07:06:47;;;;;;;9.35;3.95;;;;;;;3.85;100.00;90591.41;4992922;28;20048;-76
2024/03/28 07:09:13;;;;;;;9.13;4.00;;;;;;;3.84;100.00;90584.66;4986236;28;20057;-77
2024/03/28 07:11:39;;;;;;;6.75;3.47;;;;;;;3.85;100.00;90588.81;4993548;28;20092;-76
2024/03/28 07:14:04;;;;;;;3.08;1.95;;;;;;;4.06;100.00;90593.56;5002730;28;20038;-76
2024/03/28 07:16:30;;;;;;;2.95;1.80;;;;;;;4.04;100.00;90586.06;4988144;28;20042;-75
2024/03/28 07:18:56;;;;;;;2.63;1.52;;;;;;;3.85;100.00;90586.22;5001844;28;20051;-77
2024/03/28 07:21:22;;;;;;;2.60;1.77;;;;;;;3.65;100.00;90586.63;4993719;28;20042;-75
2024/03/28 07:23:48;;;;;;;3.15;1.90;;;;;;;3.60;100.00;90589.31;4993715;28;20038;-76
2024/03/28 07:26:13;;;;;;;3.38;2.00;;;;;;;3.58;100.00;90579.25;5011346;28;20041;-76
2024/03/28 07:28:39;;;;;;;3.90;2.20;;;;;;;3.60;100.00;90578.97;5007814;28;20026;-76
2024/03/28 07:31:05;;;;;;;3.70;2.30;;;;;;;3.63;100.00;90588.75;5009597;28;20069;-76
2024/03/28 07:33:30;;;;;;;3.88;2.47;;;;;;;3.62;100.00;90587.19;4984756;28;20038;-76
2024/03/28 07:35:56;;;;;;;4.43;2.30;;;;;;;3.63;100.00;90594.69;5008859;28;20042;-76
2024/03/28 07:38:21;;;;;;;3.50;2.20;;;;;;;3.66;100.00;90591.50;5004599;28;20022;-76
2024/03/28 07:40:48;;;;;;;3.75;2.38;;;;;;;3.68;100.00;90580.88;5004404;28;20037;-76
2024/03/28 07:43:14;;;;;;;3.20;1.98;;;;;;;3.73;100.00;90578.19;5004178;28;20037;-76
2024/03/28 07:45:41;;;;;;;3.10;1.90;;;;;;;3.74;100.00;90595.25;5011815;28;20034;-76
2024/03/28 07:48:08;;;;;;;15.57;3.20;;;;;;;4.04;100.00;90606.03;5011583;28;20446;-77
2024/03/28 07:50:34;;;;;;;4.88;2.25;;;;;;;4.00;100.00;90607.66;4996374;28;20050;-76
2024/03/28 07:52:59;;;;;;;9.40;3.33;;;;;;;3.90;100.00;90611.22;4995034;28;20026;-77
2024/03/28 07:55:25;;;;;;;4.63;2.40;;;;;;;3.94;100.00;90615.53;5012645;28;20463;-77
2024/03/28 07:57:51;;;;;;;3.70;2.42;;;;;;;3.99;100.00;90622.44;5013167;28;20073;-75
2024/03/28 08:00:17;;;;;;;3.38;2.25;;;;;;;3.96;100.00;90628.97;5012023;28;20049;-76
2024/03/28 08:02:45;;;;;;;4.15;2.30;;;;;;;3.98;100.00;90631.25;5012483;28;20045;-77
2024/03/28 08:05:12;;;;;;;3.35;2.00;;;;;;;3.96;100.00;90634.13;5004483;28;20125;-76
2024/03/28 08:07:38;;;;;;;3.58;2.20;;;;;;;3.99;100.00;90644.97;4999426;28;20545;-76
2024/03/28 08:10:03;;;;;;;5.55;2.60;;;;;;;3.97;100.00;90647.84;5005390;28;20042;-77
2024/03/28 08:12:29;;;;;;;5.38;2.17;;;;;;;3.96;100.00;90649.66;5011668;28;20479;-76
2024/03/28 08:14:55;;;;;;;3.55;2.30;;;;;;;3.94;100.00;90656.97;5012186;28;20038;-76
2024/03/28 08:17:21;;;;;;;4.25;2.17;;;;;;;4.04;100.00;90657.81;5001174;28;20172;-76
2024/03/28 08:19:47;;;;;;;3.00;1.80;;;;;;;3.92;100.00;90666.84;5006716;28;20096;-76
2024/03/28 08:22:14;;;;;;;9.55;3.80;;;;;;;4.02;100.00;90662.50;5011904;28;20045;-76
2024/03/28 08:24:40;;;;;;;3.45;1.90;;;;;;;3.99;100.00;90663.09;5006535;28;20096;-76
2024/03/28 08:27:07;;;;;;;3.88;2.17;;;;;;;3.86;100.00;90660.22;5005677;28;20030;-76
2024/03/28 08:29:33;;;;;;;3.20;2.08;;;;;;;3.83;100.00;90665.97;4996485;28;20049;-76
2024/03/28 08:31:58;;;;;;;3.30;1.80;;;;;;;3.90;100.00;90670.78;5011518;28;20419;-76
2024/03/28 08:34:25;;;;;;;3.65;2.05;;;;;;;3.88;100.00;90684.00;5011040;28;20042;-76
2024/03/28 08:36:51;;;;;;;5.28;2.08;;;;;;;3.87;100.00;90689.44;5011400;28;20034;-76
2024/03/28 08:39:23;;;;;;;3.13;2.00;;;;;;;3.85;100.00;90694.16;5008324;28;20399;-76
2024/03/28 08:41:48;;;;;;;3.83;2.10;;;;;;;3.71;100.00;90709.69;4996542;28;20088;-76
2024/03/28 08:44:14;;;;;;;3.03;1.95;;;;;;;3.71;100.00;90720.03;4991431;28;20041;-76
2024/03/28 08:46:42;;;;;;;3.47;2.00;;;;;;;3.79;100.00;90732.31;5002360;28;20037;-76
2024/03/28 08:49:08;;;;;;;4.25;2.10;;;;;;;3.60;100.00;90740.13;4997370;28;20084;-75
2024/03/28 08:51:34;;;;;;;4.00;2.33;;;;;;;3.49;100.00;90736.97;5004184;28;20046;-76
2024/03/28 08:53:59;;;;;;;4.65;2.10;;;;;;;3.45;100.00;90746.34;5011081;28;20132;-76
2024/03/28 08:56:25;;;;;;;3.85;2.50;;;;;;;3.37;100.00;90757.34;5017598;28;20046;-76
2024/03/28 08:58:50;;;;;;;4.55;2.10;;;;;;;3.40;100.00;90763.78;4990353;28;20045;-76
2024/03/28 09:01:17;;;;;;;2.83;1.75;;;;;;;3.32;100.00;90770.38;5008493;28;20423;-76
2024/03/28 09:03:42;;;;;;;3.30;1.85;;;;;;;3.38;100.00;90773.63;5004838;28;20038;-75
2024/03/28 09:06:09;;;;;;;3.20;1.90;;;;;;;3.27;100.00;90778.22;4990004;28;20034;-76
2024/03/28 09:08:36;;;;;;;4.65;2.30;;;;;;;3.21;100.00;90794.84;4993085;28;20014;-75
2024/03/28 09:11:03;;;;;;;3.83;1.98;;;;;;;3.36;100.00;90797.22;4999754;28;20376;-75
2024/03/28 09:13:29;;;;;;;3.70;1.80;;;;;;;3.24;100.00;90807.22;5003642;28;20473;-75
2024/03/28 09:15:55;;;;;;;3.10;1.95;;;;;;;3.29;100.00;90807.16;5002843;28;20038;-75
2024/03/28 09:18:21;;;;;;;4.43;1.83;;;;;;;3.25;100.00;90819.09;5001259;28;20035;-75
2024/03/28 09:20:46;;;;;;;3.30;1.98;;;;;;;3.25;100.00;90826.88;5006390;28;20363;-75
2024/03/28 09:23:12;;;;;;;3.70;1.80;;;;;;;3.24;100.00;90833.06;4992418;28;20034;-75
2024/03/28 09:25:38;;;;;;;2.15;1.50;;;;;;;3.26;100.00;90829.16;5010187;28;20069;-75
2024/03/28 09:28:05;;;;;;;2.15;1.50;;;;;;;3.27;100.00;90835.88;5010279;28;20057;-75
2024/03/28 09:30:30;;;;;;;1.67;1.33;;;;;;;3.26;100.00;90841.31;4992640;28;20037;-76
2024/03/28 09:32:56;;;;;;;2.13;1.45;;;;;;;3.30;100.00;90839.72;5007531;28;20467;-75
2024/03/28 09:35:21;;;;;;;2.28;1.40;;;;;;;3.23;100.00;90834.13;4994176;28;20050;-75
2024/03/28 09:37:47;;;;;;;2.25;1.58;;;;;;;3.20;100.00;90824.34;5004072;28;20030;-75
2024/03/28 09:40:13;;;;;;;2.08;1.35;;;;;;;3.06;100.00;90829.44;5008283;28;20042;-75
2024/03/28 09:42:43;;;;;;;2.28;1.40;;;;;;;3.13;100.00;90828.06;4989338;28;20042;-75
2024/03/28 09:45:10;;;;;;;1.58;1.30;;;;;;;3.16;100.00;90833.72;5007941;28;20040;-75
2024/03/28 09:47:38;;;;;;;2.13;1.50;;;;;;;3.22;100.00;90840.34;4987905;28;20033;-75
2024/03/28 09:50:09;;;;;;;1.70;1.20;;;;;;;3.27;100.00;90840.28;4995979;28;20101;-75
2024/03/28 09:52:35;;;;;;;3.40;1.50;;;;;;;3.33;100.00;90844.31;4989977;28;20033;-75
2024/03/28 09:55:02;;;;;;;1.70;1.20;;;;;;;3.41;100.00;90835.94;5001776;28;20034;-75
2024/03/28 09:57:27;;;;;;;1.58;1.25;;;;;;;3.46;100.00;90833.25;5002442;28;20045;-75
2024/03/28 09:59:53;;;;;;;1.65;1.30;;;;;;;3.57;100.00;90838.28;5002945;28;20034;-75
2024/03/28 10:02:19;;;;;;;1.88;1.30;;;;;;;3.66;100.00;90834.00;4990487;28;20073;-75
2024/03/28 10:04:51;;;;;;;1.80;1.20;;;;;;;3.77;100.00;90840.53;4997706;28;20121;-76
2024/03/28 10:07:18;;;;;;;1.88;1.20;;;;;;;3.86;100.00;90835.47;5006403;28;20041;-75
2024/03/28 10:09:44;;;;;;;1.20;1.10;;;;;;;4.00;100.00;90832.91;5004095;28;20394;-75
2024/03/28 10:12:12;;;;;;;1.50;1.13;;;;;;;4.24;100.00;90841.28;5002276;28;20038;-76
2024/03/28 10:14:39;;;;;;;2.08;1.20;;;;;;;4.28;100.00;90836.28;5009775;28;20022;-75
2024/03/28 10:17:06;;;;;;;3.90;1.80;;;;;;;4.17;100.00;90840.91;5001057;28;20422;-75
2024/03/28 10:19:33;;;;;;;1.92;1.35;;;;;;;4.30;100.00;90852.31;5006293;28;20105;-76
2024/03/28 10:22:11;;;;;;;1.38;1.10;;;;;;;4.20;100.00;90850.69;4988724;28;20038;-76
2024/03/28 10:24:37;;;;;;;1.50;1.13;;;;;;;4.28;100.00;90842.25;4997118;28;20526;-76
2024/03/28 10:27:18;;;;;;;7.65;2.83;;;;;;;4.15;100.00;90856.72;4981321;28;20029;-75
2024/03/28 10:29:57;;;;;;;2.00;1.35;;;;;;;3.88;100.00;90861.84;5015831;28;20038;-76
2024/03/28 10:32:23;;;;;;;2.30;1.50;;;;;;;3.98;100.00;90856.50;5010373;28;20042;-76
2024/03/28 10:34:50;;;;;;;2.80;1.70;;;;;;;3.84;100.00;90869.41;5014372;28;20034;-76
2024/03/28 10:37:23;;;;;;;4.10;2.33;;;;;;;3.79;100.00;90859.13;4999095;28;20061;-75
2024/03/28 10:39:49;;;;;;;3.20;1.98;;;;;;;3.68;100.00;90873.28;4994836;28;20030;-76
2024/03/28 10:42:15;;;;;;;3.95;2.03;;;;;;;3.73;100.00;90884.31;5007394;28;20068;-75
2024/03/28 10:44:48;;;;;;;32.72;2.53;;;;;;;3.54;100.00;90886.94;4983452;28;20030;-76
2024/03/28 10:47:18;;;;;;;6.32;2.10;;;;;;;3.50;100.00;90887.78;4981083;28;20131;-76
2024/03/28 10:49:49;;;;;;;2.83;1.65;;;;;;;3.49;100.00;90883.66;4993375;28;20477;-76
2024/03/28 10:52:35;;;;;;;6.22;2.10;;;;;;;3.37;100.00;90880.75;4991463;28;20037;-76
2024/03/28 10:55:05;;;;;;;1.95;1.23;;;;;;;3.59;100.00;90887.94;5007106;28;20420;-76
2024/03/28 10:57:32;;;;;;;1.10;1.00;;;;;;;3.45;100.00;90888.66;5005724;28;20120;-76
2024/03/28 10:59:59;;;;;;;0.98;0.93;;;;;;;3.49;100.00;90905.16;5009332;28;20026;-76
2024/03/28 11:02:27;;;;;;;1.40;1.00;;;;;;;3.47;100.00;90896.88;5001104;28;20161;-76
2024/03/28 11:04:54;;;;;;;0.82;0.82;;;;;;;3.41;100.00;90910.94;5008267;28;20060;-75
2024/03/28 11:07:21;;;;;;;1.33;0.80;;;;;;;3.48;100.00;90908.75;4996890;28;20038;-75
2024/03/28 11:09:49;;;;;;;1.10;1.00;;;;;;;3.46;100.00;90910.88;5003678;28;20036;-76
2024/03/28 11:12:15;;;;;;;1.30;1.02;;;;;;;3.41;100.00;90908.34;5000764;28;20121;-75
2024/03/28 11:14:56;;;;;;;1.20;1.00;;;;;;;3.33;100.00;90907.19;4975501;28;20036;-76
2024/03/28 11:17:23;;;;;;;1.10;1.00;;;;;;;3.47;100.00;90915.00;5003122;28;20053;-75
2024/03/28 11:20:02;;;;;;;1.15;1.00;;;;;;;3.43;100.00;90926.94;5008907;28;20057;-76
2024/03/28 11:22:29;;;;;;;1.98;1.10;;;;;;;3.50;100.00;90932.53;5012218;28;20029;-76
2024/03/28 11:24:55;;;;;;;1.80;1.20;;;;;;;3.49;100.00;90930.22;5012767;28;20510;-76
2024/03/28 11:27:24;;;;;;;1.38;0.98;;;;;;;3.52;100.00;90933.03;5004518;28;20050;-76
2024/03/28 11:30:04;;;;;;;1.10;0.90;;;;;;;3.49;100.00;90950.91;5004639;28;20100;-75
2024/03/28 11:32:30;;;;;;;1.42;1.10;;;;;;;3.57;100.00;90946.94;4987234;28;20522;-75
2024/03/28 11:35:09;;;;;;;1.42;1.05;;;;;;;3.58;100.00;90940.72;4991915;28;20107;-76
2024/03/28 11:37:35;;;;;;;1.00;0.80;;;;;;;3.69;100.00;90944.69;4999655;28;20053;-75